createdAt,value
2017-06-02T00:02:20.490Z,76.70
2017-06-02T00:04:48.926Z,77.00
2017-06-02T00:07:17.347Z,77.00
2017-06-02T00:09:45.782Z,77.20
2017-06-02T00:12:14.204Z,77.20
2017-06-02T00:14:42.658Z,77.20
2017-06-02T00:17:10.303Z,77.20
2017-06-02T00:19:38.740Z,77.10
2017-06-02T00:22:07.172Z,77.20
2017-06-02T00:24:35.578Z,77.20
2017-06-02T00:27:04.011Z,77.10
2017-06-02T00:29:32.447Z,77.10
2017-06-02T00:32:00.895Z,77.20
2017-06-02T00:34:29.315Z,78.10
2017-06-02T00:36:57.732Z,77.50
2017-06-02T00:39:26.197Z,77.50
2017-06-02T00:41:54.610Z,77.50
2017-06-02T00:44:23.048Z,77.60
2017-06-02T00:46:51.461Z,77.60
2017-06-02T00:49:19.127Z,77.60
2017-06-02T00:51:47.542Z,78.00
2017-06-02T00:54:15.994Z,78.90
2017-06-02T00:56:44.408Z,78.10
2017-06-02T00:59:12.780Z,77.90
2017-06-02T01:01:41.163Z,77.70
2017-06-02T01:04:09.524Z,77.90
2017-06-02T01:06:37.955Z,77.90
2017-06-02T01:09:06.368Z,78.00
2017-06-02T01:11:34.759Z,78.10
2017-06-02T01:14:03.133Z,78.00
2017-06-02T01:16:31.537Z,78.10
2017-06-02T01:18:59.907Z,78.10
2017-06-02T01:21:28.271Z,78.10
2017-06-02T01:23:56.659Z,78.20
2017-06-02T01:26:25.027Z,78.20
2017-06-02T01:28:53.414Z,78.30
2017-06-02T01:31:21.826Z,78.20
2017-06-02T01:33:50.212Z,78.20
2017-06-02T01:36:18.582Z,78.30
2017-06-02T01:38:46.994Z,78.40
2017-06-02T01:41:15.437Z,78.60
2017-06-02T01:43:43.809Z,78.50
2017-06-02T01:46:12.315Z,78.70
2017-06-02T01:48:40.684Z,78.70
2017-06-02T01:51:09.063Z,78.50
2017-06-02T01:53:37.427Z,78.50
2017-06-02T01:56:05.816Z,78.60
2017-06-02T01:58:34.177Z,78.80
2017-06-02T02:01:02.578Z,78.80
2017-06-02T02:03:30.943Z,79.60
2017-06-02T02:05:59.410Z,78.70
2017-06-02T02:08:27.801Z,78.70
2017-06-02T02:10:56.167Z,78.90
2017-06-02T02:13:24.552Z,79.10
2017-06-02T02:15:53.023Z,79.30
2017-06-02T02:18:21.409Z,79.40
2017-06-02T02:20:49.786Z,79.40
2017-06-02T02:23:18.203Z,79.30
2017-06-02T02:25:46.577Z,79.30
2017-06-02T02:28:14.956Z,79.50
2017-06-02T02:30:43.415Z,79.50
2017-06-02T02:33:11.782Z,79.90
2017-06-02T02:35:40.175Z,80.00
2017-06-02T02:38:08.542Z,80.30
2017-06-02T02:40:36.937Z,80.20
2017-06-02T02:43:05.309Z,80.30
2017-06-02T02:45:33.722Z,80.30
2017-06-02T02:48:02.372Z,80.10
2017-06-02T02:50:30.743Z,80.40
2017-06-02T02:52:59.136Z,80.10
2017-06-02T02:55:27.502Z,80.00
2017-06-02T02:57:55.897Z,80.00
2017-06-02T03:00:24.266Z,80.00
2017-06-02T03:02:52.661Z,80.10
2017-06-02T03:05:21.027Z,80.40
2017-06-02T03:07:49.519Z,80.40
2017-06-02T03:10:17.888Z,80.50
2017-06-02T03:12:46.261Z,80.20
2017-06-02T03:15:14.651Z,80.20
2017-06-02T03:17:43.096Z,80.10
2017-06-02T03:20:11.482Z,80.10
2017-06-02T03:22:39.086Z,80.10
2017-06-02T03:25:07.483Z,80.00
2017-06-02T03:27:35.867Z,80.30
2017-06-02T03:30:04.272Z,80.50
2017-06-02T03:32:32.655Z,80.50
2017-06-02T03:35:01.033Z,80.60
2017-06-02T03:37:29.431Z,80.60
2017-06-02T03:39:57.795Z,80.70
2017-06-02T03:42:26.193Z,80.80
2017-06-02T03:44:54.563Z,80.70
2017-06-02T03:47:22.954Z,80.70
2017-06-02T03:49:51.320Z,80.70
2017-06-02T03:52:19.720Z,80.70
2017-06-02T03:54:48.099Z,80.60
2017-06-02T03:57:15.723Z,80.50
2017-06-02T03:59:44.111Z,80.40
2017-06-02T04:02:12.486Z,80.30
2017-06-02T04:04:40.876Z,80.20
2017-06-02T04:07:09.246Z,80.10
2017-06-02T04:09:37.637Z,79.80
2017-06-02T04:12:06.015Z,79.50
2017-06-02T04:14:34.434Z,79.40
2017-06-02T04:17:02.809Z,79.30
2017-06-02T04:19:31.184Z,79.10
2017-06-02T04:21:59.591Z,78.50
2017-06-02T04:24:27.988Z,78.00
2017-06-02T04:26:56.376Z,77.70
2017-06-02T04:29:24.749Z,77.60
2017-06-02T04:31:53.203Z,77.50
2017-06-02T04:34:21.602Z,77.60
2017-06-02T04:36:49.999Z,76.80
2017-06-02T04:39:18.365Z,75.30
2017-06-02T04:41:46.745Z,73.30
2017-06-02T04:44:15.138Z,71.40
2017-06-02T04:46:43.528Z,69.40
2017-06-02T04:49:11.920Z,67.80
2017-06-02T04:51:40.283Z,66.80
2017-06-02T04:54:08.717Z,65.50
2017-06-02T04:56:36.341Z,65.40
2017-06-02T04:59:04.737Z,63.40
2017-06-02T05:01:33.098Z,62.60
2017-06-02T05:04:01.465Z,62.20
2017-06-02T05:06:29.855Z,62.00
2017-06-02T05:08:58.223Z,62.60
2017-06-02T05:11:26.607Z,63.80
2017-06-02T05:13:54.976Z,65.10
2017-06-02T05:16:23.365Z,65.90
2017-06-02T05:18:51.823Z,66.40
2017-06-02T05:21:19.456Z,66.40
2017-06-02T05:23:47.857Z,66.70
2017-06-02T05:26:16.224Z,67.00
2017-06-02T05:28:44.602Z,66.60
2017-06-02T05:31:12.987Z,66.40
2017-06-02T05:33:41.371Z,66.40
2017-06-02T05:36:08.990Z,66.40
2017-06-02T05:38:37.385Z,67.10
2017-06-02T05:41:04.999Z,67.20
2017-06-02T05:43:33.418Z,67.50
2017-06-02T05:46:01.018Z,67.50
2017-06-02T05:48:29.388Z,67.10
2017-06-02T05:50:58.801Z,66.20
2017-06-02T05:53:27.168Z,66.40
2017-06-02T05:55:55.639Z,66.40
2017-06-02T05:58:24.006Z,65.70
2017-06-02T06:00:52.417Z,65.60
2017-06-02T06:03:20.783Z,65.60
2017-06-02T06:05:49.193Z,65.20
2017-06-02T06:08:17.561Z,64.80
2017-06-02T06:10:45.930Z,64.50
2017-06-02T06:13:14.319Z,64.30
2017-06-02T06:15:43.688Z,64.10
2017-06-02T06:18:12.075Z,63.90
2017-06-02T06:20:40.453Z,63.70
2017-06-02T06:23:08.844Z,63.60
2017-06-02T06:25:37.208Z,63.30
2017-06-02T06:28:05.608Z,62.90
2017-06-02T06:30:33.984Z,62.50
2017-06-02T06:33:02.352Z,62.10
2017-06-02T06:35:30.732Z,61.80
2017-06-02T06:37:59.298Z,61.30
2017-06-02T06:40:27.687Z,61.00
2017-06-02T06:42:56.053Z,60.40
2017-06-02T06:45:24.468Z,59.60
2017-06-02T06:47:52.833Z,59.10
2017-06-02T06:50:21.256Z,58.90
2017-06-02T06:52:49.631Z,58.80
2017-06-02T06:55:17.995Z,58.60
2017-06-02T06:57:46.389Z,58.40
2017-06-02T07:00:13.992Z,58.30
2017-06-02T07:02:42.387Z,57.60
2017-06-02T07:05:10.756Z,57.30
2017-06-02T07:07:39.138Z,56.80
2017-06-02T07:10:07.503Z,56.00
2017-06-02T07:12:35.929Z,55.60
2017-06-02T07:15:04.316Z,55.70
2017-06-02T07:17:32.679Z,55.20
2017-06-02T07:20:01.063Z,54.70
2017-06-02T07:22:29.449Z,53.70
2017-06-02T07:24:57.826Z,52.40
2017-06-02T07:27:26.184Z,51.10
2017-06-02T07:29:54.575Z,49.70
2017-06-02T07:32:22.934Z,48.50
2017-06-02T07:34:51.319Z,46.80
2017-06-02T07:37:19.681Z,45.90
2017-06-02T07:39:48.044Z,44.20
2017-06-02T07:42:16.418Z,43.10
2017-06-02T07:44:44.839Z,43.40
2017-06-02T07:47:13.222Z,43.50
2017-06-02T07:49:41.595Z,43.00
2017-06-02T07:52:09.979Z,42.50
2017-06-02T07:54:38.351Z,42.50
2017-06-02T07:57:06.704Z,43.10
2017-06-02T07:59:35.084Z,43.60
2017-06-02T08:02:03.441Z,43.20
2017-06-02T08:04:31.867Z,42.40
2017-06-02T08:07:00.226Z,42.10
2017-06-02T08:09:28.603Z,42.50
2017-06-02T08:11:56.966Z,41.20
2017-06-02T08:14:25.392Z,41.00
2017-06-02T08:16:53.771Z,40.50
2017-06-02T08:19:22.128Z,40.50
2017-06-02T08:21:50.511Z,40.10
2017-06-02T08:24:18.891Z,39.90
2017-06-02T08:26:47.271Z,39.60
2017-06-02T08:29:15.631Z,39.00
2017-06-02T08:31:44.013Z,39.60
2017-06-02T08:34:12.370Z,38.70
2017-06-02T08:36:40.775Z,38.80
2017-06-02T08:39:09.135Z,39.00
2017-06-02T08:41:37.495Z,38.90
2017-06-02T08:44:05.882Z,38.80
2017-06-02T08:46:34.250Z,38.90
2017-06-02T08:49:02.622Z,37.60
2017-06-02T08:51:30.984Z,37.20
2017-06-02T08:53:59.375Z,37.60
2017-06-02T08:56:27.749Z,38.90
2017-06-02T08:58:56.178Z,39.20
2017-06-02T09:01:24.527Z,38.90
2017-06-02T09:03:52.962Z,38.30
2017-06-02T09:06:21.338Z,37.80
2017-06-02T09:08:48.983Z,37.80
2017-06-02T09:11:17.370Z,38.10
2017-06-02T09:13:45.735Z,37.90
2017-06-02T09:16:14.167Z,37.50
2017-06-02T09:18:42.526Z,37.40
2017-06-02T09:21:10.935Z,37.90
2017-06-02T09:23:39.295Z,36.80
2017-06-02T09:26:07.663Z,35.20
2017-06-02T09:28:36.047Z,35.70
2017-06-02T09:31:04.421Z,37.00
2017-06-02T09:33:32.799Z,37.80
2017-06-02T09:36:01.178Z,38.20
2017-06-02T09:38:29.589Z,38.30
2017-06-02T09:40:57.963Z,37.30
2017-06-02T09:43:26.363Z,36.60
2017-06-02T09:45:54.812Z,35.50
2017-06-02T09:48:23.182Z,34.10
2017-06-02T09:50:51.580Z,34.00
2017-06-02T09:53:19.953Z,35.30
2017-06-02T09:55:48.428Z,34.40
2017-06-02T09:58:16.804Z,33.70
2017-06-02T10:00:45.167Z,33.90
2017-06-02T10:03:13.546Z,33.60
2017-06-02T10:05:41.914Z,34.30
2017-06-02T10:08:10.374Z,35.40
2017-06-02T10:10:38.749Z,36.00
2017-06-02T10:13:08.444Z,37.20
2017-06-02T10:15:36.099Z,36.60
2017-06-02T10:18:04.488Z,37.40
2017-06-02T10:20:32.848Z,38.10
2017-06-02T10:23:01.219Z,38.40
2017-06-02T10:25:29.610Z,36.90
2017-06-02T10:27:57.985Z,35.50
2017-06-02T10:30:26.373Z,34.20
2017-06-02T10:32:53.987Z,34.20
2017-06-02T10:35:22.380Z,31.30
2017-06-02T10:37:50.835Z,31.90
2017-06-02T10:40:19.255Z,31.00
2017-06-02T10:42:47.664Z,30.80
2017-06-02T10:45:16.025Z,31.40
2017-06-02T10:47:44.481Z,32.20
2017-06-02T10:50:12.839Z,32.30
2017-06-02T10:52:41.217Z,32.00
2017-06-02T10:55:09.605Z,31.50
2017-06-02T10:57:38.170Z,30.70
2017-06-02T11:00:06.538Z,30.80
2017-06-02T11:02:34.931Z,31.00
2017-06-02T11:05:03.294Z,31.80
2017-06-02T11:07:31.663Z,31.80
2017-06-02T11:10:00.038Z,32.60
2017-06-02T11:12:28.400Z,32.10
2017-06-02T11:14:56.792Z,31.60
2017-06-02T11:17:25.150Z,30.90
2017-06-02T11:19:53.530Z,30.40
2017-06-02T11:22:21.904Z,30.00
2017-06-02T11:24:50.309Z,30.00
2017-06-02T11:27:18.667Z,30.10
2017-06-02T11:29:47.025Z,29.90
2017-06-02T11:32:15.416Z,29.40
2017-06-02T11:34:43.828Z,28.70
2017-06-02T11:37:12.210Z,28.50
2017-06-02T11:39:39.834Z,28.50
2017-06-02T11:42:08.378Z,27.50
2017-06-02T11:44:36.735Z,27.30
2017-06-02T11:47:05.151Z,27.20
2017-06-02T11:49:33.529Z,26.60
2017-06-02T11:52:01.879Z,27.30
2017-06-02T11:54:30.268Z,28.00
2017-06-02T11:56:58.640Z,28.10
2017-06-02T11:59:27.019Z,28.00
2017-06-02T12:01:55.401Z,28.30
2017-06-02T12:04:23.814Z,28.20
2017-06-02T12:06:52.177Z,28.00
2017-06-02T12:09:20.590Z,29.00
2017-06-02T12:11:48.944Z,28.20
2017-06-02T12:14:17.303Z,27.40
2017-06-02T12:16:44.930Z,27.40
2017-06-02T12:19:13.384Z,26.80
2017-06-02T12:21:41.832Z,27.30
2017-06-02T12:24:10.222Z,27.60
2017-06-02T12:26:38.635Z,27.60
2017-06-02T12:29:07.095Z,28.30
2017-06-02T12:31:35.483Z,28.50
2017-06-02T12:34:03.841Z,28.90
2017-06-02T12:36:32.204Z,29.50
2017-06-02T12:39:00.583Z,29.70
2017-06-02T12:41:28.184Z,29.70
2017-06-02T12:43:56.563Z,30.10
2017-06-02T12:46:24.918Z,30.00
2017-06-02T12:48:53.385Z,30.00
2017-06-02T12:51:21.747Z,30.20
2017-06-02T12:53:50.159Z,29.70
2017-06-02T12:56:18.513Z,29.60
2017-06-02T12:58:46.876Z,29.90
2017-06-02T13:01:15.284Z,30.40
2017-06-02T13:03:43.649Z,30.20
2017-06-02T13:06:12.022Z,30.90
2017-06-02T13:08:40.388Z,31.40
2017-06-02T13:11:08.785Z,31.30
2017-06-02T13:13:37.150Z,31.20
2017-06-02T13:16:05.527Z,31.60
2017-06-02T13:18:33.903Z,31.40
2017-06-02T13:21:02.416Z,31.60
2017-06-02T13:23:30.799Z,32.00
2017-06-02T13:25:59.162Z,31.50
2017-06-02T13:28:27.541Z,31.60
2017-06-02T13:30:55.900Z,32.20
2017-06-02T13:33:24.295Z,32.50
2017-06-02T13:35:52.654Z,35.80
2017-06-02T13:38:21.070Z,37.90
2017-06-02T13:40:49.531Z,39.30
2017-06-02T13:43:17.891Z,40.30
2017-06-02T13:45:46.400Z,41.10
2017-06-02T13:48:14.766Z,41.60
2017-06-02T13:50:43.149Z,42.50
2017-06-02T13:53:11.508Z,43.10
2017-06-02T13:55:40.119Z,43.20
2017-06-02T13:58:08.484Z,43.50
2017-06-02T14:00:37.855Z,43.60
2017-06-02T14:03:06.211Z,44.70
2017-06-02T14:05:34.566Z,45.80
2017-06-02T14:08:02.940Z,46.50
2017-06-02T14:10:31.376Z,47.00
2017-06-02T14:12:58.986Z,47.00
2017-06-02T14:15:27.344Z,48.20
2017-06-02T14:17:55.759Z,50.20
2017-06-02T14:20:24.354Z,53.00
2017-06-02T14:22:52.707Z,55.90
2017-06-02T14:25:21.094Z,58.30
2017-06-02T14:27:49.454Z,60.10
2017-06-02T14:30:17.836Z,63.30
2017-06-02T14:32:46.228Z,66.80
2017-06-02T14:35:14.857Z,69.40
2017-06-02T14:37:43.226Z,72.70
2017-06-02T14:40:11.105Z,72.60
2017-06-02T14:42:39.487Z,76.70
2017-06-02T14:45:07.902Z,78.10
2017-06-02T14:47:36.416Z,78.70
2017-06-02T14:50:05.494Z,79.20
2017-06-02T14:52:33.891Z,80.20
2017-06-02T14:55:02.267Z,81.40
2017-06-02T14:57:30.682Z,81.20
2017-06-02T14:59:59.043Z,81.70
2017-06-02T15:02:27.416Z,81.90
2017-06-02T15:04:55.815Z,81.50
2017-06-02T15:07:24.197Z,81.10
2017-06-02T15:09:52.603Z,81.40
2017-06-02T15:12:20.968Z,81.40
2017-06-02T15:14:49.358Z,81.90
2017-06-02T15:17:17.757Z,82.80
2017-06-02T15:19:46.179Z,82.90
2017-06-02T15:22:14.557Z,83.60
2017-06-02T15:24:43.034Z,83.70
2017-06-02T15:27:11.455Z,83.50
2017-06-02T15:29:39.838Z,84.40
2017-06-02T15:32:08.269Z,85.00
2017-06-02T15:34:36.643Z,85.20
2017-06-02T15:37:05.030Z,85.00
2017-06-02T15:39:32.627Z,85.00
2017-06-02T15:42:01.053Z,84.50
2017-06-02T15:44:29.418Z,85.00
2017-06-02T15:46:57.805Z,84.40
2017-06-02T15:49:26.188Z,84.50
2017-06-02T15:51:54.570Z,84.80
2017-06-02T15:54:22.961Z,85.40
2017-06-02T15:56:51.328Z,86.30
2017-06-02T15:59:19.719Z,86.70
2017-06-02T16:01:48.091Z,86.80
2017-06-02T16:04:16.493Z,87.90
2017-06-02T16:06:44.863Z,87.40
2017-06-02T16:09:13.244Z,87.60
2017-06-02T16:11:41.636Z,87.70
2017-06-02T16:14:10.007Z,87.20
2017-06-02T16:16:38.390Z,87.00
2017-06-02T16:19:07.334Z,87.00
2017-06-02T16:21:35.730Z,87.70
2017-06-02T16:24:04.131Z,86.60
2017-06-02T16:26:32.523Z,86.60
2017-06-02T16:29:00.882Z,86.70
2017-06-02T16:31:29.247Z,86.50
2017-06-02T16:33:57.638Z,86.30
2017-06-02T16:36:26.018Z,86.50
2017-06-02T16:38:53.643Z,86.30
2017-06-02T16:41:22.002Z,86.70
2017-06-02T16:43:50.390Z,86.60
2017-06-02T16:46:18.003Z,86.60
2017-06-02T16:48:46.557Z,86.60
2017-06-02T16:51:14.928Z,86.50
2017-06-02T16:53:43.291Z,85.80
2017-06-02T16:56:11.678Z,85.40
2017-06-02T16:58:40.047Z,85.00
2017-06-02T17:01:07.662Z,85.00
2017-06-02T17:03:36.023Z,84.90
2017-06-02T17:06:04.407Z,85.20
2017-06-02T17:08:32.764Z,85.50
2017-06-02T17:11:01.175Z,85.70
2017-06-02T17:13:29.542Z,85.70
2017-06-02T17:15:57.927Z,85.60
2017-06-02T17:18:26.306Z,85.20
2017-06-02T17:20:54.686Z,85.20
2017-06-02T17:23:23.066Z,84.90
2017-06-02T17:25:51.443Z,84.80
2017-06-02T17:28:19.832Z,84.50
2017-06-02T17:30:48.200Z,84.40
2017-06-02T17:33:16.598Z,83.90
2017-06-02T17:35:44.963Z,83.90
2017-06-02T17:38:13.354Z,84.10
2017-06-02T17:40:41.717Z,83.90
2017-06-02T17:43:10.137Z,84.00
2017-06-02T17:45:38.498Z,83.70
2017-06-02T17:48:06.875Z,83.60
2017-06-02T17:50:35.264Z,83.80
2017-06-02T17:53:03.630Z,83.70
2017-06-02T17:55:32.036Z,83.50
2017-06-02T17:58:00.407Z,83.40
2017-06-02T18:00:28.786Z,83.70
2017-06-02T18:02:57.167Z,84.00
2017-06-02T18:05:25.555Z,84.10
2017-06-02T18:07:53.919Z,84.30
2017-06-02T18:10:23.170Z,84.00
2017-06-02T18:12:52.266Z,83.40
2017-06-02T18:15:20.671Z,83.40
2017-06-02T18:17:49.027Z,83.30
2017-06-02T18:20:17.415Z,83.50
2017-06-02T18:22:45.802Z,83.50
2017-06-02T18:25:14.159Z,83.70
2017-06-02T18:27:41.970Z,83.70
2017-06-02T18:30:10.327Z,83.40
2017-06-02T18:32:38.714Z,82.40
2017-06-02T18:35:07.068Z,82.20
2017-06-02T18:37:35.456Z,82.10
2017-06-02T18:40:03.814Z,81.70
2017-06-02T18:42:32.247Z,82.70
2017-06-02T18:45:00.604Z,83.20
2017-06-02T18:47:29.173Z,83.40
2017-06-02T18:49:57.690Z,83.60
2017-06-02T18:52:26.150Z,84.10
2017-06-02T18:54:54.509Z,84.60
2017-06-02T18:57:22.355Z,84.50
2017-06-02T18:59:50.736Z,84.90
2017-06-02T19:02:19.160Z,84.40
2017-06-02T19:04:47.549Z,85.00
2017-06-02T19:07:15.918Z,85.30
2017-06-02T19:09:44.301Z,85.70
2017-06-02T19:12:13.695Z,85.70
2017-06-02T19:14:42.096Z,85.70
2017-06-02T19:17:10.456Z,85.70
2017-06-02T19:19:38.834Z,85.70
2017-06-02T19:22:07.194Z,85.70
2017-06-02T19:24:35.554Z,85.90
2017-06-02T19:27:04.940Z,86.00
2017-06-02T19:29:33.323Z,86.10
2017-06-02T19:32:01.733Z,86.40
2017-06-02T19:34:30.087Z,86.60
2017-06-02T19:36:58.466Z,87.30
2017-06-02T19:39:26.822Z,87.50
2017-06-02T19:41:55.219Z,87.70
2017-06-02T19:44:23.603Z,87.60
2017-06-02T19:46:52.050Z,87.60
2017-06-02T19:49:20.525Z,87.90
2017-06-02T19:51:48.939Z,88.10
2017-06-02T19:54:17.298Z,88.00
2017-06-02T19:56:45.672Z,88.80
2017-06-02T19:59:14.051Z,88.10
2017-06-02T20:01:42.436Z,88.20
2017-06-02T20:04:10.826Z,88.40
2017-06-02T20:06:39.189Z,89.50
2017-06-02T20:09:07.595Z,89.00
2017-06-02T20:11:35.962Z,89.20
2017-06-02T20:14:04.347Z,89.30
2017-06-02T20:16:32.709Z,89.00
2017-06-02T20:19:01.114Z,89.10
2017-06-02T20:21:29.492Z,89.40
2017-06-02T20:23:57.870Z,89.60
2017-06-02T20:26:26.258Z,89.50
2017-06-02T20:28:54.635Z,89.40
2017-06-02T20:31:23.027Z,89.60
2017-06-02T20:33:51.439Z,89.50
2017-06-02T20:36:19.800Z,89.40
2017-06-02T20:38:48.172Z,89.30
2017-06-02T20:41:16.555Z,89.10
2017-06-02T20:43:44.935Z,89.00
2017-06-02T20:46:13.326Z,88.90
2017-06-02T20:48:41.697Z,88.90
2017-06-02T20:51:10.082Z,88.90
2017-06-02T20:53:38.442Z,88.80
2017-06-02T20:56:06.818Z,88.60
2017-06-02T20:58:35.180Z,88.50
2017-06-02T21:01:03.563Z,88.80
2017-06-02T21:03:31.920Z,88.80
2017-06-02T21:06:00.332Z,88.50
2017-06-02T21:08:28.770Z,88.40
2017-06-02T21:10:57.138Z,88.90
2017-06-02T21:13:25.535Z,88.30
2017-06-02T21:15:53.907Z,88.70
2017-06-02T21:18:22.298Z,88.70
2017-06-02T21:20:50.666Z,88.50
2017-06-02T21:23:19.073Z,88.30
2017-06-02T21:25:47.440Z,88.10
2017-06-02T21:28:15.822Z,88.30
2017-06-02T21:30:44.185Z,88.70
2017-06-02T21:33:12.592Z,88.80
2017-06-02T21:35:40.964Z,88.80
2017-06-02T21:38:09.324Z,88.80
2017-06-02T21:40:37.713Z,88.90
2017-06-02T21:43:06.099Z,89.00
2017-06-02T21:45:34.484Z,89.10
2017-06-02T21:48:02.848Z,89.00
2017-06-02T21:50:30.460Z,89.00
2017-06-02T21:52:58.820Z,89.30
2017-06-02T21:55:27.214Z,88.90
2017-06-02T21:57:55.578Z,88.30
2017-06-02T22:00:23.948Z,88.50
2017-06-02T22:02:52.331Z,88.40
2017-06-02T22:05:20.683Z,88.50
2017-06-02T22:07:49.064Z,88.70
2017-06-02T22:10:17.426Z,89.00
2017-06-02T22:12:45.840Z,89.90
2017-06-02T22:15:14.208Z,89.10
2017-06-02T22:17:42.605Z,89.30
2017-06-02T22:20:10.974Z,89.60
2017-06-02T22:22:39.336Z,89.70
2017-06-02T22:25:07.714Z,89.80
2017-06-02T22:27:36.086Z,89.70
2017-06-02T22:30:04.464Z,89.80
2017-06-02T22:32:32.822Z,89.80
2017-06-02T22:35:01.223Z,89.80
2017-06-02T22:37:29.579Z,90.00
2017-06-02T22:39:58.022Z,90.00
2017-06-02T22:42:25.824Z,90.00
2017-06-02T22:44:54.186Z,90.30
2017-06-02T22:47:22.595Z,90.50
2017-06-02T22:49:50.960Z,90.50
2017-06-02T22:52:19.348Z,90.50
2017-06-02T22:54:47.708Z,90.50
2017-06-02T22:57:16.104Z,90.40
2017-06-02T22:59:44.468Z,90.40
2017-06-02T23:02:12.875Z,90.40
2017-06-02T23:04:41.244Z,90.50
2017-06-02T23:07:09.603Z,90.40
2017-06-02T23:09:37.994Z,90.30
2017-06-02T23:12:06.611Z,90.40
2017-06-02T23:14:35.000Z,90.40
2017-06-02T23:17:03.368Z,90.30
2017-06-02T23:19:31.754Z,90.40
2017-06-02T23:22:00.114Z,90.40
2017-06-02T23:24:28.513Z,90.40
2017-06-02T23:26:56.880Z,90.40
2017-06-02T23:29:25.243Z,90.30
2017-06-02T23:31:53.636Z,90.40
2017-06-02T23:34:21.995Z,90.30
2017-06-02T23:36:50.382Z,90.30
2017-06-02T23:39:18.739Z,90.30
2017-06-02T23:41:47.118Z,90.60
2017-06-02T23:44:15.500Z,90.30
2017-06-02T23:46:43.892Z,90.40
2017-06-02T23:49:12.258Z,90.40
2017-06-02T23:51:40.637Z,90.40
2017-06-02T23:54:09.028Z,90.50
2017-06-02T23:56:36.627Z,90.40
2017-06-02T23:59:05.011Z,90.40
